Garfield, Ohio
Current Conditions -  °F | °C
As of 3:53 PM on Monday 24 Nov 2014 (Local Time) from KBKL Reporting Station
Broken Clouds Broken Clouds  
Wind Chill: 10°   Ceiling: 4000
Heat Index: 10°   Visibility: 10mi
Dew Point:   Wind: 26mph
Humidity: 63%   Direction: 230°SW
Pressure: 29.49"   Gusts: 41mph
Location:  41.4062°N, 81.6149°W
Report Text: KBKL 242053Z 23023G36KT 10SM BKN040 10/03 A2949 RMK AO2 PK WND 24050/2024 PRESRR SLP986 T01000033 53073
Loading
Personal Weather Stations






























Interactive Weather Map New forecast layout! Learn more

10-Day Weather Forecast

Advertisements
Track Severe Weather on mobile